Preview of NWS' New Version of Forecast
This preview is not operational and should not be used for support decisions.

Terminal Aerodrome Forecast (TAF)

Issued by National Weather Service (NWS)

                            
000
FTUS42 KMFL 151502 AAA
TAFMIA
TAF AMD
KMIA 151502Z 1515/1618 21011KT P6SM VCSH SCT020 BKN035 OVC050
      TEMPO 1516/1518 4SM SHRA SCT015 BKN025
     FM160200 00000KT P6SM SCT050 BKN080 BKN200
     FM161300 31005KT P6SM SCT100 SCT200=